Portada
METAR-TAF:

METAR-TAF

Aeroports :

Manta, Equador

latitud: 00-57S, longitud: 080-41W, altitud: 13 m

Observació

L'informe es va fer fa 36 minuts, a les 18:00 UTC
Vent 13 kt del Sud
Temperatura 27°C
Humitat 70%
Pressió 1013 hPa
Visibilitat 10 km o més
Cel cobert a una alçada de 2000 ft

METAR: SEMT 051800Z 19013KT 9999 OVC020 27/21 Q1013 RMK A2993

Hora: 13:36 (18:36 UTC)

Pronòstic

L'informe es va fer fa 2 hores i 21 minuts, a les 16:15 UTC
Pronòstic vàlid del 05 a les 18 UTC al 06 a les 18 UTC
Vent 10 kt del Oest
Visibilitat 10 km o més
Cel ennuvolat a una alçada de 2000 ft
Evolucionant progressivament
l' 06 a les 00 UTC al 06 a les 02 UTC
Vent 6 kt del Sud/Sud-Oest
Cel cobert a una alçada de 1600 ft
Evolucionant progressivament
l' 06 a les 15 UTC al 06 a les 17 UTC
Vent 10 kt del Oest
Cel ennuvolat a una alçada de 2000 ft

TAF: SEMT 051615Z 0518/0618 28010KT 9999 BKN020 BECMG 0600/0602 21006KT OVC016 BECMG 0615/0617 27010KT BKN020 TX28/0520Z TN22/0610Z

Observacions i pronòstics meteorològics de més de 4000 aeroports (METAR i TAF).

Les estacions disponibles són els punts grocs i vermells al mapa.

Posi el ratolí al punt desitjat per veure el nom de l'estació.

Feu clic per veure les observacions i els pronòstics meteorològics.

Per canviar el mapa: feu clic els botons verds amb una creu de color negre per apropar; al botó verd amb un guió per allunyar la imatge; o en les fletxes verdes per a mapes adjacents.


METAR-TAF: